Buxtehude — V2BY8 — position and weather

sailwx.info

Track history (hours):
 
Tides and Currents Weather Stations Pressure Air Temp Water Temp Dewpoint Dewpoint Depression Visibility Wind Speed Wind Dir Waves Ship Positions

Buxtehude

Last reported at 2017-Jun-24 05:58 UTC. Time now 2017-Jun-26 18:58 UTC.
Position N 39°41' E 000°04'.

Length 134 m; draft 8.7 m.

Type: Ship (hazmat cat A). MMSI: 304962000.

Date/timePositionNaut miles runAvg speedWind from/ knotsBaromVisibWave heightAir tempDewpointWater temp
2017-Jun-24 05:58N 39°41' E 000°04'611.8
2017-Jun-24 05:26N 39°46' E 000°10'2111.6
2017-Jun-24 03:39N 40°01' E 000°28'211.2
2017-Jun-24 03:28N 40°02' E 000°30'1211.2
2017-Jun-24 02:26N 40°09' E 000°43'511.3
2017-Jun-24 01:58N 40°11' E 000°49'611.4
2017-Jun-24 01:24N 40°15' E 000°56'511.5
2017-Jun-24 01:00N 40°17' E 001°01'611.4
2017-Jun-24 00:30N 40°20' E 001°07'611.2
2017-Jun-23 23:57N 40°23' E 001°14'511.3
2017-Jun-23 23:30N 40°26' E 001°20'611.4
2017-Jun-23 23:00N 40°29' E 001°26'611.5
2017-Jun-23 22:30N 40°32' E 001°33'1511.4
2017-Jun-23 21:11N 40°41' E 001°49'411.3
2017-Jun-23 20:48N 40°43' E 001°54'311.2
2017-Jun-23 20:30N 40°45' E 001°58'511.1
2017-Jun-23 20:00N 40°48' E 002°04'511.0
2017-Jun-23 19:30N 40°51' E 002°10'510.7
2017-Jun-23 19:00N 40°53' E 002°16'611.0
2017-Jun-23 18:30N 40°56' E 002°22'611.2
2017-Jun-23 18:00N 40°60' E 002°28'611.2
2017-Jun-23 17:30N 41°03' E 002°34'611.2
2017-Jun-23 17:00N 41°06' E 002°40'510.8
2017-Jun-23 16:30N 41°09' E 002°47'611.4
2017-Jun-23 16:00N 41°12' E 002°53'611.5
2017-Jun-23 15:30N 41°15' E 002°59'611.6
2017-Jun-23 15:00N 41°18' E 003°06'611.4
2017-Jun-23 14:30N 41°21' E 003°12'1811.9
2017-Jun-23 12:59N 41°31' E 003°33'612.4
2017-Jun-23 12:30N 41°34' E 003°39'612.4
2017-Jun-23 12:00N 41°37' E 003°46'812.3
2017-Jun-23 11:21N 41°42' E 003°55'412.4
2017-Jun-23 11:00N 41°44' E 004°00'15311.8
2017-Jun-22 21:58N 43°07' E 006°55'711.7
2017-Jun-22 21:22N 43°11' E 007°03'411.5
2017-Jun-22 21:00N 43°14' E 007°07'611.6
2017-Jun-22 20:30N 43°17' E 007°14'1111.5
2017-Jun-22 19:34N 43°23' E 007°26'211.8
2017-Jun-22 19:25N 43°24' E 007°28'511.8
2017-Jun-22 19:00N 43°27' E 007°33'812.0
2017-Jun-22 18:21N 43°32' E 007°42'614.0
2017-Jun-22 17:55N 43°35' E 007°49'717.3
2017-Jun-22 17:30N 43°39' E 007°57'917.4
2017-Jun-22 17:00N 43°44' E 008°07'1017.1
2017-Jun-22 16:27N 43°50' E 008°17'817.1
2017-Jun-22 16:00N 43°57' E 008°23'817.1
2017-Jun-22 15:30N 44°04' E 008°29'816.9
2017-Jun-22 15:00N 44°11' E 008°36'816.6
2017-Jun-22 14:30N 44°18' E 008°42'8 8.3
2017-Jun-22 13:30N 44°25' E 008°48'0 0.0
2017-Jun-22 13:00N 44°25' E 008°48'0 0.0
2017-Jun-22 12:30N 44°25' E 008°48'0 0.0
2017-Jun-22 12:00N 44°25' E 008°48'0 0.0
2017-Jun-22 11:30N 44°25' E 008°48'0 0.0
2017-Jun-22 11:00N 44°25' E 008°48'0 0.0
2017-Jun-22 10:30N 44°25' E 008°48'0 0.0
2017-Jun-22 10:00N 44°25' E 008°48'0 0.0
2017-Jun-22 09:30N 44°25' E 008°48'0 0.0
2017-Jun-22 09:00N 44°25' E 008°48'0 0.0
2017-Jun-22 08:30N 44°25' E 008°48'0 0.0
2017-Jun-22 08:00N 44°25' E 008°48'0 0.0
2017-Jun-22 07:30N 44°25' E 008°48'0 0.0
2017-Jun-22 07:00N 44°25' E 008°48'0 0.0
2017-Jun-22 06:30N 44°25' E 008°48'0 0.0
2017-Jun-22 06:00N 44°25' E 008°48'0 0.0
2017-Jun-22 05:30N 44°25' E 008°48'0 0.0
2017-Jun-22 05:00N 44°25' E 008°48'0 0.2
2017-Jun-22 04:31N 44°25' E 008°48'3 6.7
2017-Jun-22 04:00N 44°23' E 008°44'5 9.6
2017-Jun-22 03:30N 44°18' E 008°43'0 0.3
2017-Jun-22 03:00N 44°18' E 008°43'0 0.2
2017-Jun-22 02:30N 44°18' E 008°43'0 0.2
2017-Jun-22 02:00N 44°19' E 008°43'0 0.3
2017-Jun-22 01:30N 44°19' E 008°43'0 0.3
2017-Jun-22 01:00N 44°19' E 008°43'0 0.1
2017-Jun-22 00:30N 44°19' E 008°43'1 2.3
2017-Jun-22 00:00N 44°18' E 008°45'611.6
2017-Jun-21 23:30N 44°15' E 008°51'612.5
2017-Jun-21 23:00N 44°11' E 008°58'612.3
2017-Jun-21 22:30N 44°06' E 009°04'612.6
2017-Jun-21 22:00N 44°02' E 009°10'612.6
2017-Jun-21 21:30N 43°58' E 009°17'612.6
2017-Jun-21 21:00N 43°53' E 009°23'612.2
2017-Jun-21 20:30N 43°49' E 009°30'612.0
2017-Jun-21 20:00N 43°45' E 009°36'612.1
2017-Jun-21 19:30N 43°42' E 009°42'612.1
2017-Jun-21 19:00N 43°38' E 009°49'612.1
2017-Jun-21 18:30N 43°34' E 009°55'612.2
2017-Jun-21 18:00N 43°31' E 010°03'611.8
2017-Jun-21 17:30N 43°31' E 010°11'5 9.9
2017-Jun-21 17:00N 43°32' E 010°17'2 4.6
2017-Jun-21 16:30N 43°34' E 010°18'0 0.0
2017-Jun-21 16:00N 43°34' E 010°18'0 0.0
2017-Jun-21 15:30N 43°34' E 010°18'0 0.0
2017-Jun-21 15:00N 43°34' E 010°18'0 0.0
2017-Jun-21 14:30N 43°34' E 010°18'0 0.0
2017-Jun-21 13:30N 43°34' E 010°18'0 0.0
2017-Jun-21 13:00N 43°34' E 010°18'0 0.0
2017-Jun-21 12:30N 43°34' E 010°18'0 0.0
2017-Jun-21 12:00N 43°34' E 010°18'0 0.0
2017-Jun-21 11:30N 43°34' E 010°18'0 0.0
2017-Jun-21 11:00N 43°34' E 010°18'0 0.0
2017-Jun-21 10:30N 43°34' E 010°18'0 0.0
2017-Jun-21 10:00N 43°34' E 010°18'0 0.0
2017-Jun-21 09:30N 43°34' E 010°18'0 0.0
2017-Jun-21 09:00N 43°34' E 010°18'0 0.0
2017-Jun-21 08:30N 43°34' E 010°18'0 0.0
2017-Jun-21 08:00N 43°34' E 010°18'0 0.0
2017-Jun-21 07:30N 43°34' E 010°18'0 0.0
2017-Jun-21 07:00N 43°34' E 010°18'0 0.0
2017-Jun-21 06:30N 43°34' E 010°18'0 0.0
2017-Jun-21 06:00N 43°34' E 010°18'0 0.0
2017-Jun-21 05:30N 43°34' E 010°18'0 0.0
2017-Jun-21 05:00N 43°34' E 010°18'0 0.0
2017-Jun-21 04:30N 43°34' E 010°18'0 0.5
2017-Jun-21 04:00N 43°34' E 010°18'3 5.1
2017-Jun-21 03:30N 43°32' E 010°16'714.4
2017-Jun-21 03:00N 43°26' E 010°12'815.3
2017-Jun-21 02:30N 43°18' E 010°10'815.2
2017-Jun-21 02:00N 43°11' E 010°08'815.1
2017-Jun-21 01:30N 43°03' E 010°05'815.1
2017-Jun-21 01:00N 42°56' E 010°02'815.5
2017-Jun-21 00:30N 42°49' E 009°59'815.3
2017-Jun-20 23:58N 42°41' E 009°57'715.5
2017-Jun-20 23:31N 42°34' E 009°55'815.8
2017-Jun-20 23:01N 42°26' E 009°56'815.6
2017-Jun-20 22:30N 42°18' E 009°57'815.0
2017-Jun-20 22:00N 42°13' E 010°05'715.0
2017-Jun-20 21:30N 42°08' E 010°12'1414.9
2017-Jun-20 20:34N 41°59' E 010°27'214.5
2017-Jun-20 20:27N 41°58' E 010°29'714.8
2017-Jun-20 20:00N 41°53' E 010°35'715.0
2017-Jun-20 19:30N 41°49' E 010°43'1115.1
2017-Jun-20 18:48N 41°42' E 010°54'415.2
2017-Jun-20 18:30N 41°39' E 010°59'815.5
2017-Jun-20 18:00N 41°34' E 011°07'1015.5
2017-Jun-20 17:21N 41°27' E 011°17'515.5
2017-Jun-20 17:00N 41°24' E 011°22'3015.1
2017-Jun-20 15:03N 41°05' E 011°52'115.1
2017-Jun-20 14:58N 41°04' E 011°53'3215.3
2017-Jun-20 12:52N 40°43' E 012°25'615.1
2017-Jun-20 12:26N 40°38' E 012°32'715.1
2017-Jun-20 12:00N 40°34' E 012°39'715.2
2017-Jun-20 11:30N 40°29' E 012°46'815.3
2017-Jun-20 11:00N 40°24' E 012°54'815.2
2017-Jun-20 10:30N 40°19' E 013°01'815.1
2017-Jun-20 10:01N 40°14' E 013°09'915.0
2017-Jun-20 09:26N 40°09' E 013°17'615.1
2017-Jun-20 09:00N 40°04' E 013°23'815.2
2017-Jun-20 08:31N 39°59' E 013°31'815.4
2017-Jun-20 08:00N 39°54' E 013°38'815.2
2017-Jun-20 07:31N 39°50' E 013°46'815.3
2017-Jun-20 07:01N 39°45' E 013°54'8615.1
2017-Jun-20 01:17N 38°49' E 015°19'515.2
2017-Jun-20 00:58N 38°46' E 015°23'2515.5
2017-Jun-19 23:22N 38°30' E 015°48'6 0.4
2017-Jun-19 08:25N 38°24' E 015°49'614.7
2017-Jun-19 08:00N 38°20' E 015°45'714.5
2017-Jun-19 07:31N 38°14' E 015°38'814.3
2017-Jun-19 06:57N 38°07' E 015°36'916.5
2017-Jun-19 06:23N 37°57' E 015°37'717.5
2017-Jun-19 06:01N 37°52' E 015°41'917.7
2017-Jun-19 05:30N 37°49' E 015°52'39314.3
2017-Jun-18 01:58N 37°35' E 024°08'1217.1
2017-Jun-18 01:17N 37°44' E 024°17'  
Track history (hours):
 
Tides and Currents Weather Stations Pressure Air Temp Water Temp Dewpoint Dewpoint Depression Visibility Wind Speed Wind Dir Waves Ship Positions

Buxtehude

Last reported at 2017-Jun-24 05:58 UTC. Time now 2017-Jun-26 18:58 UTC.
Position N 39°41' E 000°04'.

Length 134 m; draft 8.7 m.

Type: Ship (hazmat cat A). MMSI: 304962000.

Date/timePositionNaut miles runAvg speedWind from/ knotsBaromVisibWave heightAir tempDewpointWater temp
2017-Jun-24 05:58N 39°41' E 000°04'611.8
2017-Jun-24 05:26N 39°46' E 000°10'2111.6
2017-Jun-24 03:39N 40°01' E 000°28'211.2
2017-Jun-24 03:28N 40°02' E 000°30'1211.2
2017-Jun-24 02:26N 40°09' E 000°43'511.3
2017-Jun-24 01:58N 40°11' E 000°49'611.4
2017-Jun-24 01:24N 40°15' E 000°56'511.5
2017-Jun-24 01:00N 40°17' E 001°01'611.4
2017-Jun-24 00:30N 40°20' E 001°07'611.2
2017-Jun-23 23:57N 40°23' E 001°14'511.3
2017-Jun-23 23:30N 40°26' E 001°20'611.4
2017-Jun-23 23:00N 40°29' E 001°26'611.5
2017-Jun-23 22:30N 40°32' E 001°33'1511.4
2017-Jun-23 21:11N 40°41' E 001°49'411.3
2017-Jun-23 20:48N 40°43' E 001°54'311.2
2017-Jun-23 20:30N 40°45' E 001°58'511.1
2017-Jun-23 20:00N 40°48' E 002°04'511.0
2017-Jun-23 19:30N 40°51' E 002°10'510.7
2017-Jun-23 19:00N 40°53' E 002°16'611.0
2017-Jun-23 18:30N 40°56' E 002°22'611.2
2017-Jun-23 18:00N 40°60' E 002°28'611.2
2017-Jun-23 17:30N 41°03' E 002°34'611.2
2017-Jun-23 17:00N 41°06' E 002°40'510.8
2017-Jun-23 16:30N 41°09' E 002°47'611.4
2017-Jun-23 16:00N 41°12' E 002°53'611.5
2017-Jun-23 15:30N 41°15' E 002°59'611.6
2017-Jun-23 15:00N 41°18' E 003°06'611.4
2017-Jun-23 14:30N 41°21' E 003°12'1811.9
2017-Jun-23 12:59N 41°31' E 003°33'612.4
2017-Jun-23 12:30N 41°34' E 003°39'612.4
2017-Jun-23 12:00N 41°37' E 003°46'812.3
2017-Jun-23 11:21N 41°42' E 003°55'412.4
2017-Jun-23 11:00N 41°44' E 004°00'15311.8
2017-Jun-22 21:58N 43°07' E 006°55'711.7
2017-Jun-22 21:22N 43°11' E 007°03'411.5
2017-Jun-22 21:00N 43°14' E 007°07'611.6
2017-Jun-22 20:30N 43°17' E 007°14'1111.5
2017-Jun-22 19:34N 43°23' E 007°26'211.8
2017-Jun-22 19:25N 43°24' E 007°28'511.8
2017-Jun-22 19:00N 43°27' E 007°33'812.0
2017-Jun-22 18:21N 43°32' E 007°42'614.0
2017-Jun-22 17:55N 43°35' E 007°49'717.3
2017-Jun-22 17:30N 43°39' E 007°57'917.4
2017-Jun-22 17:00N 43°44' E 008°07'1017.1
2017-Jun-22 16:27N 43°50' E 008°17'817.1
2017-Jun-22 16:00N 43°57' E 008°23'817.1
2017-Jun-22 15:30N 44°04' E 008°29'816.9
2017-Jun-22 15:00N 44°11' E 008°36'816.6
2017-Jun-22 14:30N 44°18' E 008°42'8 8.3
2017-Jun-22 13:30N 44°25' E 008°48'0 0.0
2017-Jun-22 13:00N 44°25' E 008°48'0 0.0
2017-Jun-22 12:30N 44°25' E 008°48'0 0.0
2017-Jun-22 12:00N 44°25' E 008°48'0 0.0
2017-Jun-22 11:30N 44°25' E 008°48'0 0.0
2017-Jun-22 11:00N 44°25' E 008°48'0 0.0
2017-Jun-22 10:30N 44°25' E 008°48'0 0.0
2017-Jun-22 10:00N 44°25' E 008°48'0 0.0
2017-Jun-22 09:30N 44°25' E 008°48'0 0.0
2017-Jun-22 09:00N 44°25' E 008°48'0 0.0
2017-Jun-22 08:30N 44°25' E 008°48'0 0.0
2017-Jun-22 08:00N 44°25' E 008°48'0 0.0
2017-Jun-22 07:30N 44°25' E 008°48'0 0.0
2017-Jun-22 07:00N 44°25' E 008°48'0 0.0
2017-Jun-22 06:30N 44°25' E 008°48'0 0.0
2017-Jun-22 06:00N 44°25' E 008°48'0 0.0
2017-Jun-22 05:30N 44°25' E 008°48'0 0.0
2017-Jun-22 05:00N 44°25' E 008°48'0 0.2
2017-Jun-22 04:31N 44°25' E 008°48'3 6.7
2017-Jun-22 04:00N 44°23' E 008°44'5 9.6
2017-Jun-22 03:30N 44°18' E 008°43'0 0.3
2017-Jun-22 03:00N 44°18' E 008°43'0 0.2
2017-Jun-22 02:30N 44°18' E 008°43'0 0.2
2017-Jun-22 02:00N 44°19' E 008°43'0 0.3
2017-Jun-22 01:30N 44°19' E 008°43'0 0.3
2017-Jun-22 01:00N 44°19' E 008°43'0 0.1
2017-Jun-22 00:30N 44°19' E 008°43'1 2.3
2017-Jun-22 00:00N 44°18' E 008°45'611.6
2017-Jun-21 23:30N 44°15' E 008°51'612.5
2017-Jun-21 23:00N 44°11' E 008°58'612.3
2017-Jun-21 22:30N 44°06' E 009°04'612.6
2017-Jun-21 22:00N 44°02' E 009°10'612.6
2017-Jun-21 21:30N 43°58' E 009°17'612.6
2017-Jun-21 21:00N 43°53' E 009°23'612.2
2017-Jun-21 20:30N 43°49' E 009°30'612.0
2017-Jun-21 20:00N 43°45' E 009°36'612.1
2017-Jun-21 19:30N 43°42' E 009°42'612.1
2017-Jun-21 19:00N 43°38' E 009°49'612.1
2017-Jun-21 18:30N 43°34' E 009°55'612.2
2017-Jun-21 18:00N 43°31' E 010°03'611.8
2017-Jun-21 17:30N 43°31' E 010°11'5 9.9
2017-Jun-21 17:00N 43°32' E 010°17'2 4.6
2017-Jun-21 16:30N 43°34' E 010°18'0 0.0
2017-Jun-21 16:00N 43°34' E 010°18'0 0.0
2017-Jun-21 15:30N 43°34' E 010°18'0 0.0
2017-Jun-21 15:00N 43°34' E 010°18'0 0.0
2017-Jun-21 14:30N 43°34' E 010°18'0 0.0
2017-Jun-21 13:30N 43°34' E 010°18'0 0.0
2017-Jun-21 13:00N 43°34' E 010°18'0 0.0
2017-Jun-21 12:30N 43°34' E 010°18'0 0.0
2017-Jun-21 12:00N 43°34' E 010°18'0 0.0
2017-Jun-21 11:30N 43°34' E 010°18'0 0.0
2017-Jun-21 11:00N 43°34' E 010°18'0 0.0
2017-Jun-21 10:30N 43°34' E 010°18'0 0.0
2017-Jun-21 10:00N 43°34' E 010°18'0 0.0
2017-Jun-21 09:30N 43°34' E 010°18'0 0.0
2017-Jun-21 09:00N 43°34' E 010°18'0 0.0
2017-Jun-21 08:30N 43°34' E 010°18'0 0.0
2017-Jun-21 08:00N 43°34' E 010°18'0 0.0
2017-Jun-21 07:30N 43°34' E 010°18'0 0.0
2017-Jun-21 07:00N 43°34' E 010°18'0 0.0
2017-Jun-21 06:30N 43°34' E 010°18'0 0.0
2017-Jun-21 06:00N 43°34' E 010°18'0 0.0
2017-Jun-21 05:30N 43°34' E 010°18'0 0.0
2017-Jun-21 05:00N 43°34' E 010°18'0 0.0
2017-Jun-21 04:30N 43°34' E 010°18'0 0.5
2017-Jun-21 04:00N 43°34' E 010°18'3 5.1
2017-Jun-21 03:30N 43°32' E 010°16'714.4
2017-Jun-21 03:00N 43°26' E 010°12'815.3
2017-Jun-21 02:30N 43°18' E 010°10'815.2
2017-Jun-21 02:00N 43°11' E 010°08'815.1
2017-Jun-21 01:30N 43°03' E 010°05'815.1
2017-Jun-21 01:00N 42°56' E 010°02'815.5
2017-Jun-21 00:30N 42°49' E 009°59'815.3
2017-Jun-20 23:58N 42°41' E 009°57'715.5
2017-Jun-20 23:31N 42°34' E 009°55'815.8
2017-Jun-20 23:01N 42°26' E 009°56'815.6
2017-Jun-20 22:30N 42°18' E 009°57'815.0
2017-Jun-20 22:00N 42°13' E 010°05'715.0
2017-Jun-20 21:30N 42°08' E 010°12'1414.9
2017-Jun-20 20:34N 41°59' E 010°27'214.5
2017-Jun-20 20:27N 41°58' E 010°29'714.8
2017-Jun-20 20:00N 41°53' E 010°35'715.0
2017-Jun-20 19:30N 41°49' E 010°43'1115.1
2017-Jun-20 18:48N 41°42' E 010°54'415.2
2017-Jun-20 18:30N 41°39' E 010°59'815.5
2017-Jun-20 18:00N 41°34' E 011°07'1015.5
2017-Jun-20 17:21N 41°27' E 011°17'515.5
2017-Jun-20 17:00N 41°24' E 011°22'3015.1
2017-Jun-20 15:03N 41°05' E 011°52'115.1
2017-Jun-20 14:58N 41°04' E 011°53'3215.3
2017-Jun-20 12:52N 40°43' E 012°25'615.1
2017-Jun-20 12:26N 40°38' E 012°32'715.1
2017-Jun-20 12:00N 40°34' E 012°39'715.2
2017-Jun-20 11:30N 40°29' E 012°46'815.3
2017-Jun-20 11:00N 40°24' E 012°54'815.2
2017-Jun-20 10:30N 40°19' E 013°01'815.1
2017-Jun-20 10:01N 40°14' E 013°09'915.0
2017-Jun-20 09:26N 40°09' E 013°17'615.1
2017-Jun-20 09:00N 40°04' E 013°23'815.2
2017-Jun-20 08:31N 39°59' E 013°31'815.4
2017-Jun-20 08:00N 39°54' E 013°38'815.2
2017-Jun-20 07:31N 39°50' E 013°46'815.3
2017-Jun-20 07:01N 39°45' E 013°54'8615.1
2017-Jun-20 01:17N 38°49' E 015°19'515.2
2017-Jun-20 00:58N 38°46' E 015°23'2515.5
2017-Jun-19 23:22N 38°30' E 015°48'6 0.4
2017-Jun-19 08:25N 38°24' E 015°49'614.7
2017-Jun-19 08:00N 38°20' E 015°45'714.5
2017-Jun-19 07:31N 38°14' E 015°38'814.3
2017-Jun-19 06:57N 38°07' E 015°36'916.5
2017-Jun-19 06:23N 37°57' E 015°37'717.5
2017-Jun-19 06:01N 37°52' E 015°41'917.7
2017-Jun-19 05:30N 37°49' E 015°52'39314.3
2017-Jun-18 01:58N 37°35' E 024°08'1217.1
2017-Jun-18 01:17N 37°44' E 024°17'  

Dump ship's entire track history